PWSweather.com
Personal Weather Stations
Station Observations
WODONGA
Wodonga, WodongaAU 3690

WodongaWodongaAU 3690

Lat: -36.121, Lon: 146.87

Elevation: 541

Station Type: Weather Station

http://www.wodongaweather.net

Latest ConditionsUpdated 11:15:00 AM GMT+10:10 Monday, Dec 22, 2014
Currently Today's Max Today's Min Today's Average
Temperature 96.1°F35.6°C 96.1°F35.6°C 63.0°F17.2°C 72.4°F22.4°C
Dew Point 64.9°F18.3°C 64.9°F18.3°C 51.2°F10.7°C 55.1°F12.8°C
Winds 6.8 mph SE10.9 kmh SE 7.2 mph E11.6 kmh E - 3.3 mph 5.3 kmh
Wind Gusts 9.2 mph14.8 kmh 12.1 mph19.5 kmh - -
Humidity 36% 66% 35% 56%
Pressure 29.87 in1011.5 mb 29.93 in1013.5 mb 29.86 in1011.2 mb -
Hour Temp Dew Point Humidity Winds Wind Gusts Pressure Precip Precip Rate Daily Precip Total
11:15 AM 96.1°F35.6°C 64.9°F18.3°C 36% 6.8 mph SE10.9 kmh SE 9.2 mph14.8 kmh 29.87 in1011.5 mb 0.00 in0.0 mm 0.00 in/hr0.0 mm/hr 0.00 in0.0 mm
11:10 AM 95.0°F35.0°C 63.9°F17.7°C 36% 7.0 mph E11.3 kmh E 11.4 mph18.3 kmh 29.88 in1011.9 mb 0.00 in0.0 mm 0.00 in/hr0.0 mm/hr 0.00 in0.0 mm
11:05 AM 94.3°F34.6°C 62.5°F16.9°C 35% 6.7 mph E10.8 kmh E 11.4 mph18.3 kmh 29.88 in1011.9 mb 0.00 in0.0 mm 0.00 in/hr0.0 mm/hr 0.00 in0.0 mm
11:00 AM 94.3°F34.6°C 63.3°F17.4°C 36% 5.2 mph ESE8.4 kmh ESE 9.2 mph14.8 kmh 29.88 in1011.9 mb 0.00 in0.0 mm 0.00 in/hr0.0 mm/hr 0.00 in0.0 mm
10:55 AM 93.6°F34.2°C 64.2°F17.9°C 38% 4.8 mph ESE7.7 kmh ESE 11.4 mph18.3 kmh 29.88 in1011.9 mb 0.00 in0.0 mm 0.00 in/hr0.0 mm/hr 0.00 in0.0 mm
10:50 AM 93.2°F34.0°C 62.3°F16.8°C 36% 6.2 mph E10.0 kmh E 11.4 mph18.3 kmh 29.89 in1012.2 mb 0.00 in0.0 mm 0.00 in/hr0.0 mm/hr 0.00 in0.0 mm
10:45 AM 93.0°F33.9°C 63.0°F17.2°C 37% 5.5 mph ESE8.9 kmh ESE 11.4 mph18.3 kmh 29.89 in1012.2 mb 0.00 in0.0 mm 0.00 in/hr0.0 mm/hr 0.00 in0.0 mm
10:40 AM 92.3°F33.5°C 63.1°F17.3°C 38% 5.3 mph SE8.5 kmh SE 12.1 mph19.5 kmh 29.89 in1012.2 mb 0.00 in0.0 mm 0.00 in/hr0.0 mm/hr 0.00 in0.0 mm
10:35 AM 92.3°F33.5°C 62.3°F16.8°C 37% 5.9 mph SE9.5 kmh SE 12.1 mph19.5 kmh 29.89 in1012.2 mb 0.00 in0.0 mm 0.00 in/hr0.0 mm/hr 0.00 in0.0 mm
10:30 AM 91.8°F33.2°C 63.3°F17.4°C 39% 4.8 mph ESE7.7 kmh ESE 8.3 mph13.4 kmh 29.89 in1012.2 mb 0.00 in0.0 mm 0.00 in/hr0.0 mm/hr 0.00 in0.0 mm
10:25 AM 90.7°F32.6°C 62.4°F16.9°C 39% 4.6 mph SE7.4 kmh SE 9.8 mph15.8 kmh 29.90 in1012.5 mb 0.00 in0.0 mm 0.00 in/hr0.0 mm/hr 0.00 in0.0 mm
10:20 AM 90.1°F32.3°C 61.9°F16.6°C 39% 4.4 mph SE7.1 kmh SE 9.8 mph15.8 kmh 29.90 in1012.5 mb 0.00 in0.0 mm 0.00 in/hr0.0 mm/hr 0.00 in0.0 mm
10:15 AM 90.5°F32.5°C 62.9°F17.2°C 40% 4.1 mph ESE6.6 kmh ESE 7.6 mph12.2 kmh 29.90 in1012.5 mb 0.00 in0.0 mm 0.00 in/hr0.0 mm/hr 0.00 in0.0 mm
10:10 AM 89.4°F31.9°C 62.0°F16.7°C 40% 4.2 mph E6.8 kmh E 7.6 mph12.2 kmh 29.90 in1012.5 mb 0.00 in0.0 mm 0.00 in/hr0.0 mm/hr 0.00 in0.0 mm
10:05 AM 88.0°F31.1°C 62.1°F16.7°C 42% 3.5 mph ENE5.6 kmh ENE 6.0 mph9.7 kmh 29.91 in1012.9 mb 0.00 in0.0 mm 0.00 in/hr0.0 mm/hr 0.00 in0.0 mm
10:00 AM 86.9°F30.5°C 61.1°F16.2°C 42% 3.9 mph NE6.3 kmh NE 6.0 mph9.7 kmh 29.91 in1012.9 mb 0.00 in0.0 mm 0.00 in/hr0.0 mm/hr 0.00 in0.0 mm
09:55 AM 86.0°F30.0°C 61.0°F16.1°C 43% 4.4 mph ENE7.1 kmh ENE 7.6 mph12.2 kmh 29.91 in1012.9 mb 0.00 in0.0 mm 0.00 in/hr0.0 mm/hr 0.00 in0.0 mm
09:50 AM 85.6°F29.8°C 60.0°F15.6°C 42% 5.5 mph E8.9 kmh E 9.8 mph15.8 kmh 29.91 in1012.9 mb 0.00 in0.0 mm 0.00 in/hr0.0 mm/hr 0.00 in0.0 mm
09:45 AM 86.0°F30.0°C 59.6°F15.3°C 41% 6.7 mph E10.8 kmh E 9.8 mph15.8 kmh 29.91 in1012.9 mb 0.00 in0.0 mm 0.00 in/hr0.0 mm/hr 0.00 in0.0 mm
09:40 AM 86.4°F30.2°C 60.6°F15.9°C 42% 6.8 mph E10.9 kmh E 10.7 mph17.2 kmh 29.91 in1012.9 mb 0.00 in0.0 mm 0.00 in/hr0.0 mm/hr 0.00 in0.0 mm
09:35 AM 86.4°F30.2°C 60.6°F15.9°C 42% 6.8 mph E10.9 kmh E 11.4 mph18.3 kmh 29.91 in1012.9 mb 0.00 in0.0 mm 0.00 in/hr0.0 mm/hr 0.00 in0.0 mm
09:30 AM 85.6°F29.8°C 60.0°F15.6°C 42% 5.8 mph E9.3 kmh E 11.4 mph18.3 kmh 29.91 in1012.9 mb 0.00 in0.0 mm 0.00 in/hr0.0 mm/hr 0.00 in0.0 mm
09:25 AM 85.5°F29.7°C 59.8°F15.4°C 42% 5.2 mph E8.4 kmh E 7.6 mph12.2 kmh 29.91 in1012.9 mb 0.00 in0.0 mm 0.00 in/hr0.0 mm/hr 0.00 in0.0 mm
09:20 AM 85.3°F29.6°C 60.3°F15.7°C 43% 5.0 mph E8.0 kmh E 7.6 mph12.2 kmh 29.91 in1012.9 mb 0.00 in0.0 mm 0.00 in/hr0.0 mm/hr 0.00 in0.0 mm
09:15 AM 84.6°F29.2°C 60.3°F15.7°C 44% 5.3 mph E8.5 kmh E 7.6 mph12.2 kmh 29.91 in1012.9 mb 0.00 in0.0 mm 0.00 in/hr0.0 mm/hr 0.00 in0.0 mm
09:10 AM 84.2°F29.0°C 60.0°F15.6°C 44% 4.9 mph E7.9 kmh E 7.6 mph12.2 kmh 29.92 in1013.2 mb 0.00 in0.0 mm 0.00 in/hr0.0 mm/hr 0.00 in0.0 mm
09:05 AM 83.1°F28.4°C 59.6°F15.3°C 45% 4.1 mph E6.6 kmh E 6.0 mph9.7 kmh 29.92 in1013.2 mb 0.00 in0.0 mm 0.00 in/hr0.0 mm/hr 0.00 in0.0 mm
09:00 AM 82.9°F28.3°C 59.5°F15.3°C 45% 4.2 mph E6.8 kmh E 5.4 mph8.7 kmh 29.92 in1013.2 mb 0.00 in0.0 mm 0.00 in/hr0.0 mm/hr 0.00 in0.0 mm
08:55 AM 83.1°F28.4°C 59.0°F15.0°C 44% 4.8 mph E7.7 kmh E 6.9 mph11.1 kmh 29.92 in1013.2 mb 0.00 in0.0 mm 0.00 in/hr0.0 mm/hr 0.00 in0.0 mm
08:50 AM 83.5°F28.6°C 60.0°F15.6°C 45% 5.3 mph E8.5 kmh E 6.9 mph11.1 kmh 29.93 in1013.5 mb 0.00 in0.0 mm 0.00 in/hr0.0 mm/hr 0.00 in0.0 mm
08:45 AM 82.8°F28.2°C 59.3°F15.2°C 45% 5.5 mph E8.9 kmh E 6.9 mph11.1 kmh 29.92 in1013.2 mb 0.00 in0.0 mm 0.00 in/hr0.0 mm/hr 0.00 in0.0 mm
08:40 AM 82.4°F28.0°C 59.0°F15.0°C 45% 6.0 mph SE9.7 kmh SE 7.6 mph12.2 kmh 29.92 in1013.2 mb 0.00 in0.0 mm 0.00 in/hr0.0 mm/hr 0.00 in0.0 mm
08:35 AM 81.7°F27.6°C 58.3°F14.6°C 45% 6.1 mph SE9.8 kmh SE 8.3 mph13.4 kmh 29.92 in1013.2 mb 0.00 in0.0 mm 0.00 in/hr0.0 mm/hr 0.00 in0.0 mm
08:30 AM 80.6°F27.0°C 57.9°F14.4°C 46% 6.5 mph ESE10.5 kmh ESE 8.3 mph13.4 kmh 29.92 in1013.2 mb 0.00 in0.0 mm 0.00 in/hr0.0 mm/hr 0.00 in0.0 mm
08:25 AM 80.1°F26.7°C 57.5°F14.2°C 46% 6.8 mph ESE10.9 kmh ESE 8.3 mph13.4 kmh 29.92 in1013.2 mb 0.00 in0.0 mm 0.00 in/hr0.0 mm/hr 0.00 in0.0 mm
08:20 AM 79.7°F26.5°C 57.7°F14.3°C 47% 6.0 mph E9.7 kmh E 7.6 mph12.2 kmh 29.92 in1013.2 mb 0.00 in0.0 mm 0.00 in/hr0.0 mm/hr 0.00 in0.0 mm
08:15 AM 79.2°F26.2°C 57.2°F14.0°C 47% 5.8 mph ESE9.3 kmh ESE 7.6 mph12.2 kmh 29.92 in1013.2 mb 0.00 in0.0 mm 0.00 in/hr0.0 mm/hr 0.00 in0.0 mm
08:10 AM 78.3°F25.7°C 57.0°F13.9°C 48% 6.9 mph E11.1 kmh E 10.7 mph17.2 kmh 29.92 in1013.2 mb 0.00 in0.0 mm 0.00 in/hr0.0 mm/hr 0.00 in0.0 mm
08:05 AM 77.9°F25.5°C 56.7°F13.7°C 48% 7.2 mph E11.6 kmh E 10.7 mph17.2 kmh 29.92 in1013.2 mb 0.00 in0.0 mm 0.00 in/hr0.0 mm/hr 0.00 in0.0 mm
08:00 AM 77.5°F25.3°C 56.3°F13.5°C 48% 6.8 mph E10.9 kmh E 8.3 mph13.4 kmh 29.92 in1013.2 mb 0.00 in0.0 mm 0.00 in/hr0.0 mm/hr 0.00 in0.0 mm
07:55 AM 76.8°F24.9°C 56.2°F13.4°C 49% 6.8 mph E10.9 kmh E 9.2 mph14.8 kmh 29.92 in1013.2 mb 0.00 in0.0 mm 0.00 in/hr0.0 mm/hr 0.00 in0.0 mm
07:50 AM 76.3°F24.6°C 56.3°F13.5°C 50% 6.8 mph E10.9 kmh E 9.2 mph14.8 kmh 29.92 in1013.2 mb 0.00 in0.0 mm 0.00 in/hr0.0 mm/hr 0.00 in0.0 mm
07:45 AM 75.6°F24.2°C 56.2°F13.4°C 51% 6.7 mph ESE10.8 kmh ESE 8.3 mph13.4 kmh 29.92 in1013.2 mb 0.00 in0.0 mm 0.00 in/hr0.0 mm/hr 0.00 in0.0 mm
07:40 AM 75.0°F23.9°C 56.2°F13.4°C 52% 5.9 mph ESE9.5 kmh ESE 8.3 mph13.4 kmh 29.92 in1013.2 mb 0.00 in0.0 mm 0.00 in/hr0.0 mm/hr 0.00 in0.0 mm
07:35 AM 74.3°F23.5°C 56.1°F13.4°C 53% 5.5 mph E8.9 kmh E 8.3 mph13.4 kmh 29.92 in1013.2 mb 0.00 in0.0 mm 0.00 in/hr0.0 mm/hr 0.00 in0.0 mm
07:30 AM 73.8°F23.2°C 55.6°F13.1°C 53% 5.0 mph ESE8.0 kmh ESE 6.9 mph11.1 kmh 29.92 in1013.2 mb 0.00 in0.0 mm 0.00 in/hr0.0 mm/hr 0.00 in0.0 mm
07:25 AM 73.0°F22.8°C 55.4°F13.0°C 54% 4.8 mph SE7.7 kmh SE 6.9 mph11.1 kmh 29.92 in1013.2 mb 0.00 in0.0 mm 0.00 in/hr0.0 mm/hr 0.00 in0.0 mm
07:20 AM 72.5°F22.5°C 55.4°F13.0°C 55% 4.9 mph ESE7.9 kmh ESE 6.9 mph11.1 kmh 29.92 in1013.2 mb 0.00 in0.0 mm 0.00 in/hr0.0 mm/hr 0.00 in0.0 mm
07:15 AM 71.8°F22.1°C 55.8°F13.2°C 57% 4.3 mph SE6.9 kmh SE 6.9 mph11.1 kmh 29.92 in1013.2 mb 0.00 in0.0 mm 0.00 in/hr0.0 mm/hr 0.00 in0.0 mm
07:10 AM 71.1°F21.7°C 55.6°F13.1°C 58% 3.8 mph SE6.1 kmh SE 5.4 mph8.7 kmh 29.92 in1013.2 mb 0.00 in0.0 mm 0.00 in/hr0.0 mm/hr 0.00 in0.0 mm
07:05 AM 70.3°F21.3°C 55.4°F13.0°C 59% 3.4 mph SE5.5 kmh SE 5.4 mph8.7 kmh 29.92 in1013.2 mb 0.00 in0.0 mm 0.00 in/hr0.0 mm/hr 0.00 in0.0 mm
07:00 AM 69.6°F20.9°C 55.1°F12.8°C 60% 2.9 mph SE4.7 kmh SE 4.5 mph7.2 kmh 29.92 in1013.2 mb 0.00 in0.0 mm 0.00 in/hr0.0 mm/hr 0.00 in0.0 mm
06:55 AM 68.7°F20.4°C 54.3°F12.4°C 60% 3.2 mph ESE5.1 kmh ESE 5.4 mph8.7 kmh 29.92 in1013.2 mb 0.00 in0.0 mm 0.00 in/hr0.0 mm/hr 0.00 in0.0 mm
06:50 AM 68.0°F20.0°C 54.1°F12.3°C 61% 2.1 mph SE3.4 kmh SE 5.4 mph8.7 kmh 29.92 in1013.2 mb 0.00 in0.0 mm 0.00 in/hr0.0 mm/hr 0.00 in0.0 mm
06:45 AM 67.3°F19.6°C 53.8°F12.1°C 62% 1.1 mph SSW1.8 kmh SSW 2.2 mph3.5 kmh 29.91 in1012.9 mb 0.00 in0.0 mm 0.00 in/hr0.0 mm/hr 0.00 in0.0 mm
06:40 AM 66.9°F19.4°C 53.5°F11.9°C 62% 1.5 mph SW2.4 kmh SW 2.2 mph3.5 kmh 29.91 in1012.9 mb 0.00 in0.0 mm 0.00 in/hr0.0 mm/hr 0.00 in0.0 mm
06:35 AM 66.6°F19.2°C 53.2°F11.8°C 62% 1.5 mph SW2.4 kmh SW 2.2 mph3.5 kmh 29.91 in1012.9 mb 0.00 in0.0 mm 0.00 in/hr0.0 mm/hr 0.00 in0.0 mm
06:30 AM 66.4°F19.1°C 53.4°F11.9°C 63% 1.2 mph SW1.9 kmh SW 2.2 mph3.5 kmh 29.91 in1012.9 mb 0.00 in0.0 mm 0.00 in/hr0.0 mm/hr 0.00 in0.0 mm
06:25 AM 65.8°F18.8°C 52.9°F11.6°C 63% 0.7 mph SW1.1 kmh SW 1.6 mph2.6 kmh 29.91 in1012.9 mb 0.00 in0.0 mm 0.00 in/hr0.0 mm/hr 0.00 in0.0 mm
06:20 AM 65.7°F18.7°C 52.7°F11.5°C 63% 0.9 mph SSW1.4 kmh SSW 2.2 mph3.5 kmh 29.91 in1012.9 mb 0.00 in0.0 mm 0.00 in/hr0.0 mm/hr 0.00 in0.0 mm
06:15 AM 65.5°F18.6°C 52.6°F11.4°C 63% 1.2 mph S1.9 kmh S 2.2 mph3.5 kmh 29.91 in1012.9 mb 0.00 in0.0 mm 0.00 in/hr0.0 mm/hr 0.00 in0.0 mm
06:10 AM 65.3°F18.5°C 52.8°F11.6°C 64% 1.1 mph SW1.8 kmh SW 1.6 mph2.6 kmh 29.91 in1012.9 mb 0.00 in0.0 mm 0.00 in/hr0.0 mm/hr 0.00 in0.0 mm
06:05 AM 65.1°F18.4°C 52.2°F11.2°C 63% 0.8 mph SSW1.3 kmh SSW 1.6 mph2.6 kmh 29.91 in1012.9 mb 0.00 in0.0 mm 0.00 in/hr0.0 mm/hr 0.00 in0.0 mm
06:00 AM 64.8°F18.2°C 52.3°F11.3°C 64% 1.1 mph SSE1.8 kmh SSE 2.2 mph3.5 kmh 29.90 in1012.5 mb 0.00 in0.0 mm 0.00 in/hr0.0 mm/hr 0.00 in0.0 mm
05:55 AM 64.6°F18.1°C 52.1°F11.2°C 64% 0.8 mph SE1.3 kmh SE 2.2 mph3.5 kmh 29.90 in1012.5 mb 0.00 in0.0 mm 0.00 in/hr0.0 mm/hr 0.00 in0.0 mm
05:50 AM 64.6°F18.1°C 52.1°F11.2°C 64% 0.8 mph SW1.3 kmh SW 1.6 mph2.6 kmh 29.90 in1012.5 mb 0.00 in0.0 mm 0.00 in/hr0.0 mm/hr 0.00 in0.0 mm
05:45 AM 64.2°F17.9°C 52.2°F11.2°C 65% 1.2 mph SSW1.9 kmh SSW 1.6 mph2.6 kmh 29.90 in1012.5 mb 0.00 in0.0 mm 0.00 in/hr0.0 mm/hr 0.00 in0.0 mm
05:40 AM 64.0°F17.8°C 52.1°F11.2°C 65% 1.1 mph SSW1.8 kmh SSW 2.2 mph3.5 kmh 29.90 in1012.5 mb 0.00 in0.0 mm 0.00 in/hr0.0 mm/hr 0.00 in0.0 mm
05:35 AM 64.0°F17.8°C 52.1°F11.2°C 65% 1.5 mph SSW2.4 kmh SSW 2.2 mph3.5 kmh 29.90 in1012.5 mb 0.00 in0.0 mm 0.00 in/hr0.0 mm/hr 0.00 in0.0 mm
05:30 AM 63.9°F17.7°C 51.9°F11.1°C 65% 1.5 mph SSW2.4 kmh SSW 2.2 mph3.5 kmh 29.89 in1012.2 mb 0.00 in0.0 mm 0.00 in/hr0.0 mm/hr 0.00 in0.0 mm
05:25 AM 63.7°F17.6°C 51.7°F10.9°C 65% 0.9 mph SSW1.4 kmh SSW 1.6 mph2.6 kmh 29.89 in1012.2 mb 0.00 in0.0 mm 0.00 in/hr0.0 mm/hr 0.00 in0.0 mm
05:20 AM 63.7°F17.6°C 52.1°F11.2°C 66% 1.2 mph S1.9 kmh S 2.2 mph3.5 kmh 29.89 in1012.2 mb 0.00 in0.0 mm 0.00 in/hr0.0 mm/hr 0.00 in0.0 mm
05:15 AM 63.5°F17.5°C 52.0°F11.1°C 66% 2.2 mph S3.5 kmh S 3.1 mph5.0 kmh 29.89 in1012.2 mb 0.00 in0.0 mm 0.00 in/hr0.0 mm/hr 0.00 in0.0 mm
05:10 AM 63.5°F17.5°C 52.0°F11.1°C 66% 2.4 mph S3.9 kmh S 3.1 mph5.0 kmh 29.88 in1011.9 mb 0.00 in0.0 mm 0.00 in/hr0.0 mm/hr 0.00 in0.0 mm
05:05 AM 63.5°F17.5°C 52.0°F11.1°C 66% 2.1 mph S3.4 kmh S 3.1 mph5.0 kmh 29.88 in1011.9 mb 0.00 in0.0 mm 0.00 in/hr0.0 mm/hr 0.00 in0.0 mm
05:00 AM 63.5°F17.5°C 52.0°F11.1°C 66% 2.1 mph S3.4 kmh S 3.1 mph5.0 kmh 29.88 in1011.9 mb 0.00 in0.0 mm 0.00 in/hr0.0 mm/hr 0.00 in0.0 mm
04:55 AM 63.5°F17.5°C 51.5°F10.8°C 65% 2.0 mph S3.2 kmh S 3.1 mph5.0 kmh 29.88 in1011.9 mb 0.00 in0.0 mm 0.00 in/hr0.0 mm/hr 0.00 in0.0 mm
04:50 AM 63.1°F17.3°C 51.2°F10.7°C 65% 1.9 mph S3.1 kmh S 3.1 mph5.0 kmh 29.89 in1012.2 mb 0.00 in0.0 mm 0.00 in/hr0.0 mm/hr 0.00 in0.0 mm
04:45 AM 63.0°F17.2°C 51.4°F10.8°C 66% 2.4 mph S3.9 kmh S 3.8 mph6.1 kmh 29.89 in1012.2 mb 0.00 in0.0 mm 0.00 in/hr0.0 mm/hr 0.00 in0.0 mm
04:40 AM 63.0°F17.2°C 51.4°F10.8°C 66% 3.1 mph S5.0 kmh S 3.8 mph6.1 kmh 29.88 in1011.9 mb 0.00 in0.0 mm 0.00 in/hr0.0 mm/hr 0.00 in0.0 mm
04:35 AM 63.1°F17.3°C 51.2°F10.7°C 65% 2.7 mph S4.3 kmh S 3.8 mph6.1 kmh 29.88 in1011.9 mb 0.00 in0.0 mm 0.00 in/hr0.0 mm/hr 0.00 in0.0 mm
04:30 AM 63.3°F17.4°C 51.4°F10.8°C 65% 1.7 mph SW2.7 kmh SW 3.1 mph5.0 kmh 29.88 in1011.9 mb 0.00 in0.0 mm 0.00 in/hr0.0 mm/hr 0.00 in0.0 mm
04:25 AM 63.1°F17.3°C 51.2°F10.7°C 65% 1.7 mph SW2.7 kmh SW 3.1 mph5.0 kmh 29.88 in1011.9 mb 0.00 in0.0 mm 0.00 in/hr0.0 mm/hr 0.00 in0.0 mm
04:20 AM 63.3°F17.4°C 51.4°F10.8°C 65% 1.9 mph SW3.1 kmh SW 3.1 mph5.0 kmh 29.87 in1011.5 mb 0.00 in0.0 mm 0.00 in/hr0.0 mm/hr 0.00 in0.0 mm
04:15 AM 63.3°F17.4°C 51.4°F10.8°C 65% 1.4 mph SW2.3 kmh SW 2.2 mph3.5 kmh 29.87 in1011.5 mb 0.00 in0.0 mm 0.00 in/hr0.0 mm/hr 0.00 in0.0 mm
04:10 AM 63.3°F17.4°C 51.4°F10.8°C 65% 1.4 mph S2.3 kmh S 3.1 mph5.0 kmh 29.87 in1011.5 mb 0.00 in0.0 mm 0.00 in/hr0.0 mm/hr 0.00 in0.0 mm
04:05 AM 63.3°F17.4°C 51.4°F10.8°C 65% 2.1 mph S3.4 kmh S 3.1 mph5.0 kmh 29.87 in1011.5 mb 0.00 in0.0 mm 0.00 in/hr0.0 mm/hr 0.00 in0.0 mm
04:00 AM 63.7°F17.6°C 51.7°F10.9°C 65% 2.6 mph S4.2 kmh S 3.1 mph5.0 kmh 29.87 in1011.5 mb 0.00 in0.0 mm 0.00 in/hr0.0 mm/hr 0.00 in0.0 mm
03:55 AM 63.9°F17.7°C 51.5°F10.8°C 64% 2.2 mph S3.5 kmh S 3.1 mph5.0 kmh 29.87 in1011.5 mb 0.00 in0.0 mm 0.00 in/hr0.0 mm/hr 0.00 in0.0 mm
03:50 AM 64.0°F17.8°C 51.6°F10.9°C 64% 1.4 mph S2.3 kmh S 3.1 mph5.0 kmh 29.87 in1011.5 mb 0.00 in0.0 mm 0.00 in/hr0.0 mm/hr 0.00 in0.0 mm
03:45 AM 64.0°F17.8°C 51.6°F10.9°C 64% 1.8 mph SSE2.9 kmh SSE 3.1 mph5.0 kmh 29.87 in1011.5 mb 0.00 in0.0 mm 0.00 in/hr0.0 mm/hr 0.00 in0.0 mm
03:40 AM 64.4°F18.0°C 52.0°F11.1°C 64% 2.6 mph SE4.2 kmh SE 3.8 mph6.1 kmh 29.87 in1011.5 mb 0.00 in0.0 mm 0.00 in/hr0.0 mm/hr 0.00 in0.0 mm
03:35 AM 64.6°F18.1°C 51.7°F10.9°C 63% 3.1 mph SE5.0 kmh SE 4.5 mph7.2 kmh 29.87 in1011.5 mb 0.00 in0.0 mm 0.00 in/hr0.0 mm/hr 0.00 in0.0 mm
03:30 AM 64.8°F18.2°C 51.9°F11.1°C 63% 2.8 mph SE4.5 kmh SE 4.5 mph7.2 kmh 29.87 in1011.5 mb 0.00 in0.0 mm 0.00 in/hr0.0 mm/hr 0.00 in0.0 mm
03:25 AM 64.8°F18.2°C 51.9°F11.1°C 63% 2.5 mph SSE4.0 kmh SSE 3.1 mph5.0 kmh 29.87 in1011.5 mb 0.00 in0.0 mm 0.00 in/hr0.0 mm/hr 0.00 in0.0 mm
03:20 AM 64.6°F18.1°C 52.1°F11.2°C 64% 2.1 mph S3.4 kmh S 3.1 mph5.0 kmh 29.87 in1011.5 mb 0.00 in0.0 mm 0.00 in/hr0.0 mm/hr 0.00 in0.0 mm
03:15 AM 64.6°F18.1°C 51.7°F10.9°C 63% 2.2 mph S3.5 kmh S 3.1 mph5.0 kmh 29.87 in1011.5 mb 0.00 in0.0 mm 0.00 in/hr0.0 mm/hr 0.00 in0.0 mm
03:10 AM 64.9°F18.3°C 52.1°F11.2°C 63% 2.6 mph S4.2 kmh S 3.1 mph5.0 kmh 29.86 in1011.2 mb 0.00 in0.0 mm 0.00 in/hr0.0 mm/hr 0.00 in0.0 mm
03:05 AM 65.1°F18.4°C 52.2°F11.2°C 63% 2.7 mph S4.3 kmh S 3.8 mph6.1 kmh 29.86 in1011.2 mb 0.00 in0.0 mm 0.00 in/hr0.0 mm/hr 0.00 in0.0 mm
03:00 AM 65.1°F18.4°C 52.2°F11.2°C 63% 3.4 mph S5.5 kmh S 4.5 mph7.2 kmh 29.86 in1011.2 mb 0.00 in0.0 mm 0.00 in/hr0.0 mm/hr 0.00 in0.0 mm
02:55 AM 65.3°F18.5°C 52.0°F11.1°C 62% 3.4 mph S5.5 kmh S 4.5 mph7.2 kmh 29.86 in1011.2 mb 0.00 in0.0 mm 0.00 in/hr0.0 mm/hr 0.00 in0.0 mm
02:50 AM 65.5°F18.6°C 52.1°F11.2°C 62% 2.5 mph S4.0 kmh S 3.8 mph6.1 kmh 29.86 in1011.2 mb 0.00 in0.0 mm 0.00 in/hr0.0 mm/hr 0.00 in0.0 mm
02:45 AM 65.5°F18.6°C 52.1°F11.2°C 62% 1.9 mph SSE3.1 kmh SSE 2.2 mph3.5 kmh 29.86 in1011.2 mb 0.00 in0.0 mm 0.00 in/hr0.0 mm/hr 0.00 in0.0 mm
02:40 AM 65.5°F18.6°C 52.1°F11.2°C 62% 1.9 mph SSE3.1 kmh SSE 3.1 mph5.0 kmh 29.86 in1011.2 mb 0.00 in0.0 mm 0.00 in/hr0.0 mm/hr 0.00 in0.0 mm
02:35 AM 65.7°F18.7°C 52.3°F11.3°C 62% 2.6 mph SE4.2 kmh SE 3.1 mph5.0 kmh 29.86 in1011.2 mb 0.00 in0.0 mm 0.00 in/hr0.0 mm/hr 0.00 in0.0 mm
02:30 AM 65.5°F18.6°C 52.1°F11.2°C 62% 2.6 mph SSE4.2 kmh SSE 3.1 mph5.0 kmh 29.86 in1011.2 mb 0.00 in0.0 mm 0.00 in/hr0.0 mm/hr 0.00 in0.0 mm
02:25 AM 65.5°F18.6°C 52.1°F11.2°C 62% 2.1 mph S3.4 kmh S 2.2 mph3.5 kmh 29.86 in1011.2 mb 0.00 in0.0 mm 0.00 in/hr0.0 mm/hr 0.00 in0.0 mm
02:20 AM 65.7°F18.7°C 52.3°F11.3°C 62% 2.1 mph S3.4 kmh S 2.2 mph3.5 kmh 29.86 in1011.2 mb 0.00 in0.0 mm 0.00 in/hr0.0 mm/hr 0.00 in0.0 mm
02:15 AM 65.8°F18.8°C 52.0°F11.1°C 61% 1.8 mph S2.9 kmh S 2.2 mph3.5 kmh 29.87 in1011.5 mb 0.00 in0.0 mm 0.00 in/hr0.0 mm/hr 0.00 in0.0 mm
02:10 AM 66.0°F18.9°C 52.2°F11.2°C 61% 1.3 mph S2.1 kmh S 2.2 mph3.5 kmh 29.87 in1011.5 mb 0.00 in0.0 mm 0.00 in/hr0.0 mm/hr 0.00 in0.0 mm
02:05 AM 66.0°F18.9°C 52.2°F11.2°C 61% 1.1 mph S1.8 kmh S 2.2 mph3.5 kmh 29.87 in1011.5 mb 0.00 in0.0 mm 0.00 in/hr0.0 mm/hr 0.00 in0.0 mm
02:00 AM 66.2°F19.0°C 52.4°F11.3°C 61% 1.4 mph S2.3 kmh S 2.2 mph3.5 kmh 29.87 in1011.5 mb 0.00 in0.0 mm 0.00 in/hr0.0 mm/hr 0.00 in0.0 mm
01:55 AM 66.2°F19.0°C 51.9°F11.1°C 60% 1.7 mph S2.7 kmh S 3.1 mph5.0 kmh 29.87 in1011.5 mb 0.00 in0.0 mm 0.00 in/hr0.0 mm/hr 0.00 in0.0 mm
01:50 AM 66.4°F19.1°C 52.1°F11.2°C 60% 2.1 mph SSE3.4 kmh SSE 3.1 mph5.0 kmh 29.87 in1011.5 mb 0.00 in0.0 mm 0.00 in/hr0.0 mm/hr 0.00 in0.0 mm
01:45 AM 66.6°F19.2°C 52.3°F11.3°C 60% 2.3 mph SSE3.7 kmh SSE 3.1 mph5.0 kmh 29.87 in1011.5 mb 0.00 in0.0 mm 0.00 in/hr0.0 mm/hr 0.00 in0.0 mm
01:40 AM 66.7°F19.3°C 52.4°F11.3°C 60% 1.6 mph SE2.6 kmh SE 3.1 mph5.0 kmh 29.88 in1011.9 mb 0.00 in0.0 mm 0.00 in/hr0.0 mm/hr 0.00 in0.0 mm
01:35 AM 66.7°F19.3°C 52.4°F11.3°C 60% 1.6 mph SE2.6 kmh SE 3.1 mph5.0 kmh 29.88 in1011.9 mb 0.00 in0.0 mm 0.00 in/hr0.0 mm/hr 0.00 in0.0 mm
01:30 AM 66.6°F19.2°C 52.3°F11.3°C 60% 2.7 mph SE4.3 kmh SE 3.8 mph6.1 kmh 29.88 in1011.9 mb 0.00 in0.0 mm 0.00 in/hr0.0 mm/hr 0.00 in0.0 mm
01:25 AM 66.7°F19.3°C 52.9°F11.6°C 61% 2.8 mph SE4.5 kmh SE 3.8 mph6.1 kmh 29.88 in1011.9 mb 0.00 in0.0 mm 0.00 in/hr0.0 mm/hr 0.00 in0.0 mm
01:20 AM 66.9°F19.4°C 53.1°F11.7°C 61% 2.4 mph S3.9 kmh S 3.8 mph6.1 kmh 29.87 in1011.5 mb 0.00 in0.0 mm 0.00 in/hr0.0 mm/hr 0.00 in0.0 mm
01:15 AM 66.9°F19.4°C 53.1°F11.7°C 61% 2.3 mph S3.7 kmh S 3.8 mph6.1 kmh 29.87 in1011.5 mb 0.00 in0.0 mm 0.00 in/hr0.0 mm/hr 0.00 in0.0 mm
01:10 AM 67.1°F19.5°C 53.2°F11.8°C 61% 1.8 mph SSE2.9 kmh SSE 2.2 mph3.5 kmh 29.88 in1011.9 mb 0.00 in0.0 mm 0.00 in/hr0.0 mm/hr 0.00 in0.0 mm
01:05 AM 67.3°F19.6°C 52.9°F11.6°C 60% 1.3 mph S2.1 kmh S 2.2 mph3.5 kmh 29.88 in1011.9 mb 0.00 in0.0 mm 0.00 in/hr0.0 mm/hr 0.00 in0.0 mm
01:00 AM 67.3°F19.6°C 52.9°F11.6°C 60% 1.3 mph S2.1 kmh S 2.2 mph3.5 kmh 29.89 in1012.2 mb 0.00 in0.0 mm 0.00 in/hr0.0 mm/hr 0.00 in0.0 mm
12:55 AM 67.5°F19.7°C 53.1°F11.7°C 60% 1.8 mph S2.9 kmh S 2.2 mph3.5 kmh 29.89 in1012.2 mb 0.00 in0.0 mm 0.00 in/hr0.0 mm/hr 0.00 in0.0 mm
12:50 AM 67.8°F19.9°C 53.0°F11.7°C 59% 2.0 mph S3.2 kmh S 2.2 mph3.5 kmh 29.88 in1011.9 mb 0.00 in0.0 mm 0.00 in/hr0.0 mm/hr 0.00 in0.0 mm
12:45 AM 68.0°F20.0°C 53.2°F11.8°C 59% 2.0 mph S3.2 kmh S 2.2 mph3.5 kmh 29.89 in1012.2 mb 0.00 in0.0 mm 0.00 in/hr0.0 mm/hr 0.00 in0.0 mm
12:40 AM 68.0°F20.0°C 53.2°F11.8°C 59% 2.0 mph S3.2 kmh S 3.1 mph5.0 kmh 29.89 in1012.2 mb 0.00 in0.0 mm 0.00 in/hr0.0 mm/hr 0.00 in0.0 mm
12:35 AM 68.0°F20.0°C 52.7°F11.5°C 58% 1.7 mph S2.7 kmh S 3.1 mph5.0 kmh 29.89 in1012.2 mb 0.00 in0.0 mm 0.00 in/hr0.0 mm/hr 0.00 in0.0 mm
12:30 AM 68.2°F20.1°C 52.9°F11.6°C 58% 1.2 mph S1.9 kmh S 1.6 mph2.6 kmh 29.89 in1012.2 mb 0.00 in0.0 mm 0.00 in/hr0.0 mm/hr 0.00 in0.0 mm
12:25 AM 68.2°F20.1°C 52.9°F11.6°C 58% 1.5 mph S2.4 kmh S 2.2 mph3.5 kmh 29.89 in1012.2 mb 0.00 in0.0 mm 0.00 in/hr0.0 mm/hr 0.00 in0.0 mm
12:20 AM 68.5°F20.3°C 52.7°F11.5°C 57% 2.0 mph S3.2 kmh S 2.2 mph3.5 kmh 29.89 in1012.2 mb 0.00 in0.0 mm 0.00 in/hr0.0 mm/hr 0.00 in0.0 mm
12:15 AM 69.3°F20.7°C 53.4°F11.9°C 57% 1.9 mph S3.1 kmh S 2.2 mph3.5 kmh 29.90 in1012.5 mb 0.00 in0.0 mm 0.00 in/hr0.0 mm/hr 0.00 in0.0 mm
12:10 AM 69.3°F20.7°C 53.4°F11.9°C 57% 1.9 mph S3.1 kmh S 2.2 mph3.5 kmh 29.89 in1012.2 mb 0.00 in0.0 mm 0.00 in/hr0.0 mm/hr 0.00 in0.0 mm
12:05 AM 69.6°F20.9°C 53.3°F11.8°C 56% 2.1 mph S3.4 kmh S 3.1 mph5.0 kmh 29.90 in1012.5 mb 0.00 in0.0 mm 0.00 in/hr0.0 mm/hr 0.00 in0.0 mm
12:00 AM 70.0°F21.1°C 53.6°F12.0°C 56% 2.7 mph SSE4.3 kmh SSE 3.8 mph6.1 kmh 29.90 in1012.5 mb 0.00 in0.0 mm 0.00 in/hr0.0 mm/hr 0.00 in0.0 mm